Balkhash, Balkhash Airport (UAAH)

NameBalkhash Airport
CityBalkhash
CountryKazakhstan
ICAOUAAH
IATABXH
Altitude440 m
CoordinatesGoogle Map
Live Air TrafficLiveATC.net
METARUAAH 101100Z 09004MPS 9999 BKN019 M05/M09 Q1023 NOSIG RMK QFE730/0973
2018-12-10 11:00:00 Wind: East (90°) 4 m/s - Visibility: > 10000 m - Temperature: -5 °C - Dew point: -9 °C - Humidity: 73.8% - Pressure: 1023 hPa

Sorry, no flights used the airport in this database.